TimeGMT,TemperatureF,Dew PointF,Humidity,Sea Level PressureIn,VisibilityMPH,Wind Direction,Wind SpeedMPH,Gust SpeedMPH,PrecipitationIn,Events,Conditions,WindDirDegrees,DateUTC
2:50 AM,44,44,97,,,East,3.5,,,,,100,2012-11-17 02:50:00
5:50 AM,46,45,96,,,SW,3.5,,,,,230,2012-11-17 05:50:00
6:20 AM,46.4,46.4,100,29.68,6.2,NW,12.7,-,N/A,Rain,Light Rain,320,2012-11-17 06:20:00
6:50 AM,46.4,44.6,93,29.68,6.2,NNW,10.4,-,N/A,Rain,Light Rain,330,2012-11-17 06:50:00
7:20 AM,46.4,44.6,93,29.68,6.2,NNW,8.1,-,N/A,Rain,Light Rain,330,2012-11-17 07:20:00
7:50 AM,46.4,44.6,93,29.68,6.2,NW,8.1,-,N/A,,Scattered Clouds,310,2012-11-17 07:50:00
8:20 AM,46.4,44.6,93,29.71,6.2,WNW,8.1,-,N/A,,Mostly Cloudy,300,2012-11-17 08:20:00
8:50 AM,47,44,86,,,WNW,8.1,,,,,290,2012-11-17 08:50:00
8:50 AM,46.4,46.4,100,29.71,6.2,WNW,8.1,-,N/A,,Scattered Clouds,300,2012-11-17 08:50:00
9:20 AM,46.4,46.4,100,29.71,6.2,NW,9.2,-,N/A,,Scattered Clouds,320,2012-11-17 09:20:00
9:50 AM,46.4,46.4,100,29.71,6.2,NNW,4.6,-,N/A,,Scattered Clouds,330,2012-11-17 09:50:00
10:20 AM,48.2,46.4,93,29.71,6.2,NNW,4.6,-,N/A,,Scattered Clouds,330,2012-11-17 10:20:00
10:50 AM,48.2,44.6,87,29.71,6.2,WNW,9.2,-,N/A,,Scattered Clouds,300,2012-11-17 10:50:00
11:20 AM,48.2,42.8,82,29.71,6.2,WNW,11.5,-,N/A,,Scattered Clouds,300,2012-11-17 11:20:00
11:50 AM,48,40,64,,,West,11.5,,,,,280,2012-11-17 11:50:00
11:50 AM,48.2,42.8,82,29.74,6.2,WNW,11.5,-,N/A,,Scattered Clouds,290,2012-11-17 11:50:00
12:20 PM,48.2,42.8,82,29.74,6.2,West,16.1,-,N/A,,Scattered Clouds,280,2012-11-17 12:20:00
12:50 PM,48.2,41.0,76,29.74,6.2,West,16.1,-,N/A,,Scattered Clouds,280,2012-11-17 12:50:00
1:20 PM,48.2,39.2,71,29.74,6.2,West,15.0,-,N/A,,Partly Cloudy,280,2012-11-17 13:20:00
1:50 PM,48.2,41.0,76,29.74,6.2,West,16.1,-,N/A,,Scattered Clouds,280,2012-11-17 13:50:00
2:20 PM,48.2,41.0,76,29.74,6.2,West,17.3,-,N/A,,Scattered Clouds,280,2012-11-17 14:20:00
2:50 PM,47,38,63,,,West,15.0,,,,,270,2012-11-17 14:50:00
2:50 PM,48.2,39.2,71,29.74,6.2,West,16.1,-,N/A,,Scattered Clouds,280,2012-11-17 14:50:00
3:20 PM,48.2,39.2,71,29.74,6.2,West,17.3,-,N/A,,Scattered Clouds,270,2012-11-17 15:20:00
3:50 PM,48.2,39.2,71,29.74,6.2,West,15.0,-,N/A,Rain,Light Rain Showers,280,2012-11-17 15:50:00
4:20 PM,46.4,39.2,76,29.74,6.2,West,16.1,-,N/A,,Partly Cloudy,270,2012-11-17 16:20:00
4:50 PM,48.2,37.4,66,29.74,6.2,West,17.3,-,N/A,,Partly Cloudy,280,2012-11-17 16:50:00
5:20 PM,46.4,37.4,71,29.74,6.2,West,13.8,-,N/A,,Partly Cloudy,280,2012-11-17 17:20:00
5:50 PM,46.4,39.2,76,29.77,6.2,West,17.3,-,N/A,,Partly Cloudy,270,2012-11-17 17:50:00
6:20 PM,44.6,37.4,76,29.77,6.2,WSW,15.0,-,N/A,,Partly Cloudy,250,2012-11-17 18:20:00
6:50 PM,46.4,39.2,76,29.77,6.2,WSW,16.1,-,N/A,Rain,Light Rain Showers,240,2012-11-17 18:50:00
7:20 PM,46.4,39.2,76,29.77,6.2,West,16.1,-,N/A,Rain,Light Rain Showers,260,2012-11-17 19:20:00
7:50 PM,46.4,41.0,81,29.77,6.2,WSW,16.1,-,N/A,Rain,Light Rain Showers,250,2012-11-17 19:50:00
8:20 PM,44.6,41.0,87,29.77,6.2,West,11.5,-,N/A,,Partly Cloudy,260,2012-11-17 20:20:00
8:50 PM,46,39,68,,,West,13.8,,,,,270,2012-11-17 20:50:00
8:50 PM,44.6,39.2,81,29.77,6.2,West,12.7,-,N/A,,Partly Cloudy,260,2012-11-17 20:50:00
11:50 PM,45,37,64,,,West,17.3,,,,,270,2012-11-17 23:50:00